Terminal Aerodrome Forecast
Issued by NWS

Home | Current Version | Previous Version | Text Only | Print | Product List | Glossary On
Versions: 1 2 3 4 5 6 7 8 9 10 11 12
000
FTUS45 KRIW 290500
TAFCOD
TAF
KCOD 290527Z 2906/3006 29007KT P6SM VCSH SCT080 BKN100
     FM290900 VRB06KT P6SM FEW080 SCT120
     FM292000 13009KT P6SM VCTS SCT070CB BKN100
     FM300400 22007KT P6SM SCT100 BKN150
      AMD LTD TO CLD VIS AND WIND=

USA.gov is the U.S. government's official web portal to all federal, state and local government web resources and services.